Overview Statistics Trail Chart Weather Telemetry Raw packets
 

This is the latest recevied weather packets stored in our database for station/object EA1IWF-10. If no packets are shown the sender has not sent any weather packets the latest 10 day(s).

<< 4 5 6 7 8 >>
Time Temp. Humidity Pressure Rain* Wind** Luminosity Snow
1788194052 40° C 16% 1022 hPa - - - -
1788193152 38.33° C 16% 1022.1 hPa - - - -
1788192251 36.67° C 19% 1022.2 hPa - - - -
1788191350 36.11° C 19% 1022.1 hPa - - - -
1788190449 36.11° C 19% 1022.4 hPa - - - -
1788189548 37.22° C 19% 1022.4 hPa - - - -
1788188647 41.67° C 15% 1022.7 hPa - - - -
1788187747 42.78° C 15% 1022.8 hPa - - - -
1788186846 36.11° C 20% 1022.9 hPa - - - -
1788185944 34.44° C 24% 1023 hPa - - - -
1787949179 22.22° C 51% 1024.5 hPa - - - -
1787948280 23.89° C 51% 1024.6 hPa - - - -
1787948253 22.22° C 50% 1024.5 hPa - - - -
1787947352 22.78° C 50% 1024.5 hPa - - - -
1787946451 22.78° C 49% 1024.2 hPa - - - -
1787945551 23.33° C 47% 1024.2 hPa - - - -
1787944650 23.33° C 46% 1024.1 hPa - - - -
1787943749 23.89° C 45% 1024 hPa - - - -
1787942848 24.44° C 43% 1024.1 hPa - - - -
1787941947 24.44° C 43% 1024 hPa - - - -
1787941047 25° C 42% 1024 hPa - - - -
1787940146 25.56° C 40% 1024 hPa - - - -
1787939245 26.67° C 38% 1024 hPa - - - -
1787938344 26.11° C 38% 1024 hPa - - - -
1787937443 26.11° C 38% 1024.1 hPa - - - -

* Rain since midnight (hover to see other rain measurements)
** Current wind speed in m/s (hover to see current wind gust speed)